sensor_id;sensor_type;location;lat;lon;timestamp;temperature;humidity
8711;DHT22;4392;47.400;8.062;2024-01-15T01:49:32;3.30;99.90
8711;DHT22;4392;47.400;8.062;2024-01-15T01:51:59;3.50;99.90
8711;DHT22;4392;47.400;8.062;2024-01-15T01:54:29;3.40;99.90
8711;DHT22;4392;47.400;8.062;2024-01-15T01:56:55;3.70;99.90
8711;DHT22;4392;47.400;8.062;2024-01-15T01:59:23;6.50;99.90
8711;DHT22;4392;47.400;8.062;2024-01-15T02:01:50;5.30;99.90
8711;DHT22;4392;47.400;8.062;2024-01-15T02:04:16;4.50;99.90
8711;DHT22;4392;47.400;8.062;2024-01-15T02:06:42;4.30;99.90
8711;DHT22;4392;47.400;8.062;2024-01-15T02:09:08;3.70;99.90
8711;DHT22;4392;47.400;8.062;2024-01-15T02:11:34;3.30;99.90
8711;DHT22;4392;47.400;8.062;2024-01-15T02:14:00;3.10;99.90
8711;DHT22;4392;47.400;8.062;2024-01-15T02:16:25;4.70;99.90
8711;DHT22;4392;47.400;8.062;2024-01-15T02:18:51;7.10;99.90
8711;DHT22;4392;47.400;8.062;2024-01-15T02:21:17;7.60;99.90
8711;DHT22;4392;47.400;8.062;2024-01-15T02:23:42;7.80;96.00
8711;DHT22;4392;47.400;8.062;2024-01-15T02:26:08;6.30;94.00
8711;DHT22;4392;47.400;8.062;2024-01-15T02:28:34;5.20;96.60
8711;DHT22;4392;47.400;8.062;2024-01-15T02:31:00;4.90;97.40
8711;DHT22;4392;47.400;8.062;2024-01-15T02:33:26;4.40;98.70
8711;DHT22;4392;47.400;8.062;2024-01-15T02:35:51;4.30;99.70
8711;DHT22;4392;47.400;8.062;2024-01-15T02:38:17;4.30;99.70
8711;DHT22;4392;47.400;8.062;2024-01-15T02:40:45;4.00;99.90
8711;DHT22;4392;47.400;8.062;2024-01-15T02:43:11;3.30;99.90
8711;DHT22;4392;47.400;8.062;2024-01-15T02:45:37;3.20;99.90
8711;DHT22;4392;47.400;8.062;2024-01-15T02:48:03;3.40;99.90
8711;DHT22;4392;47.400;8.062;2024-01-15T02:50:28;3.40;99.90
8711;DHT22;4392;47.400;8.062;2024-01-15T02:52:54;3.40;99.90
8711;DHT22;4392;47.400;8.062;2024-01-15T02:55:19;3.30;99.90
8711;DHT22;4392;47.400;8.062;2024-01-15T02:57:45;3.30;99.90
8711;DHT22;4392;47.400;8.062;2024-01-15T03:00:11;2.70;99.90
8711;DHT22;4392;47.400;8.062;2024-01-15T03:02:38;2.70;99.90
8711;DHT22;4392;47.400;8.062;2024-01-15T03:05:09;3.00;99.90
8711;DHT22;4392;47.400;8.062;2024-01-15T03:07:34;2.90;99.90
8711;DHT22;4392;47.400;8.062;2024-01-15T03:10:00;2.90;99.90
8711;DHT22;4392;47.400;8.062;2024-01-15T03:12:26;2.80;99.90
8711;DHT22;4392;47.400;8.062;2024-01-15T03:14:51;2.70;99.90
8711;DHT22;4392;47.400;8.062;2024-01-15T03:17:17;2.80;99.90
8711;DHT22;4392;47.400;8.062;2024-01-15T03:19:43;2.80;99.90
8711;DHT22;4392;47.400;8.062;2024-01-15T03:22:08;3.10;99.90
8711;DHT22;4392;47.400;8.062;2024-01-15T03:24:35;4.00;99.90
8711;DHT22;4392;47.400;8.062;2024-01-15T03:27:01;5.50;99.90
8711;DHT22;4392;47.400;8.062;2024-01-15T03:29:27;5.00;99.90
8711;DHT22;4392;47.400;8.062;2024-01-15T03:31:53;4.60;99.20
8711;DHT22;4392;47.400;8.062;2024-01-15T03:34:18;4.30;99.90
8711;DHT22;4392;47.400;8.062;2024-01-15T03:36:44;3.80;99.90
8711;DHT22;4392;47.400;8.062;2024-01-15T03:39:10;3.60;99.70
8711;DHT22;4392;47.400;8.062;2024-01-15T03:41:35;3.40;99.90
8711;DHT22;4392;47.400;8.062;2024-01-15T03:44:01;3.20;99.90
8711;DHT22;4392;47.400;8.062;2024-01-15T03:46:27;2.90;99.90
8711;DHT22;4392;47.400;8.062;2024-01-15T03:48:53;2.80;99.90
8711;DHT22;4392;47.400;8.062;2024-01-15T03:51:18;2.90;99.90
8711;DHT22;4392;47.400;8.062;2024-01-15T03:53:44;2.80;99.90
8711;DHT22;4392;47.400;8.062;2024-01-15T03:56:12;3.00;99.90
8711;DHT22;4392;47.400;8.062;2024-01-15T03:58:38;2.90;99.90
8711;DHT22;4392;47.400;8.062;2024-01-15T04:01:07;5.00;99.90
8711;DHT22;4392;47.400;8.062;2024-01-15T04:03:32;4.70;98.40
8711;DHT22;4392;47.400;8.062;2024-01-15T04:05:58;3.40;99.90
8711;DHT22;4392;47.400;8.062;2024-01-15T04:08:24;3.10;99.90
8711;DHT22;4392;47.400;8.062;2024-01-15T04:10:49;3.10;99.90
8711;DHT22;4392;47.400;8.062;2024-01-15T04:13:17;3.00;99.90
8711;DHT22;4392;47.400;8.062;2024-01-15T04:15:43;3.20;99.90
8711;DHT22;4392;47.400;8.062;2024-01-15T04:18:08;3.30;99.90
8711;DHT22;4392;47.400;8.062;2024-01-15T04:20:34;3.20;99.90
8711;DHT22;4392;47.400;8.062;2024-01-15T04:23:00;3.20;99.90
8711;DHT22;4392;47.400;8.062;2024-01-15T04:25:25;3.30;99.90
8711;DHT22;4392;47.400;8.062;2024-01-15T04:27:51;3.30;99.90
8711;DHT22;4392;47.400;8.062;2024-01-15T04:30:17;3.50;99.90
8711;DHT22;4392;47.400;8.062;2024-01-15T04:32:42;3.30;99.90
8711;DHT22;4392;47.400;8.062;2024-01-15T04:35:08;3.20;99.90
8711;DHT22;4392;47.400;8.062;2024-01-15T04:37:33;3.20;99.90
8711;DHT22;4392;47.400;8.062;2024-01-15T04:39:59;3.10;99.90
8711;DHT22;4392;47.400;8.062;2024-01-15T04:42:25;3.30;99.90
8711;DHT22;4392;47.400;8.062;2024-01-15T04:44:50;3.50;99.90
8711;DHT22;4392;47.400;8.062;2024-01-15T04:47:16;3.70;99.90
8711;DHT22;4392;47.400;8.062;2024-01-15T04:49:42;3.70;99.90
8711;DHT22;4392;47.400;8.062;2024-01-15T04:52:07;3.80;99.90
8711;DHT22;4392;47.400;8.062;2024-01-15T04:54:36;3.70;99.90
8711;DHT22;4392;47.400;8.062;2024-01-15T04:57:01;3.70;99.90
8711;DHT22;4392;47.400;8.062;2024-01-15T04:59:28;3.90;99.80
8711;DHT22;4392;47.400;8.062;2024-01-15T05:01:54;3.70;99.90
8711;DHT22;4392;47.400;8.062;2024-01-15T05:04:20;3.30;99.90
8711;DHT22;4392;47.400;8.062;2024-01-15T05:06:46;3.50;99.90
8711;DHT22;4392;47.400;8.062;2024-01-15T05:09:11;3.50;99.90
8711;DHT22;4392;47.400;8.062;2024-01-15T05:11:39;3.70;99.70
8711;DHT22;4392;47.400;8.062;2024-01-15T05:14:04;3.60;99.50
8711;DHT22;4392;47.400;8.062;2024-01-15T05:16:30;3.70;99.00
8711;DHT22;4392;47.400;8.062;2024-01-15T05:18:56;4.10;99.90
8711;DHT22;4392;47.400;8.062;2024-01-15T05:21:21;5.40;99.10
8711;DHT22;4392;47.400;8.062;2024-01-15T05:23:47;4.00;97.70
8711;DHT22;4392;47.400;8.062;2024-01-15T05:26:12;3.20;99.40
8711;DHT22;4392;47.400;8.062;2024-01-15T05:28:40;3.30;99.90
8711;DHT22;4392;47.400;8.062;2024-01-15T05:31:06;3.60;99.50
8711;DHT22;4392;47.400;8.062;2024-01-15T05:33:31;3.70;99.10
8711;DHT22;4392;47.400;8.062;2024-01-15T05:35:57;3.60;99.00
8711;DHT22;4392;47.400;8.062;2024-01-15T05:38:24;3.40;99.10
8711;DHT22;4392;47.400;8.062;2024-01-15T05:40:52;3.10;99.90
8711;DHT22;4392;47.400;8.062;2024-01-15T05:43:18;2.80;99.90
8711;DHT22;4392;47.400;8.062;2024-01-15T05:45:43;2.80;99.90
8711;DHT22;4392;47.400;8.062;2024-01-15T05:48:10;3.10;99.90
8711;DHT22;4392;47.400;8.062;2024-01-15T05:50:36;3.20;99.90
8711;DHT22;4392;47.400;8.062;2024-01-15T05:53:01;3.30;99.90
8711;DHT22;4392;47.400;8.062;2024-01-15T05:55:28;3.40;99.90
8711;DHT22;4392;47.400;8.062;2024-01-15T05:57:53;3.30;99.90
8711;DHT22;4392;47.400;8.062;2024-01-15T06:00:19;3.20;99.90
8711;DHT22;4392;47.400;8.062;2024-01-15T06:02:45;3.30;99.90
8711;DHT22;4392;47.400;8.062;2024-01-15T06:05:12;3.40;99.90
8711;DHT22;4392;47.400;8.062;2024-01-15T06:07:38;3.40;99.90
8711;DHT22;4392;47.400;8.062;2024-01-15T06:10:04;3.40;99.90
8711;DHT22;4392;47.400;8.062;2024-01-15T06:12:30;3.40;99.20
8711;DHT22;4392;47.400;8.062;2024-01-15T06:14:56;3.30;98.80
8711;DHT22;4392;47.400;8.062;2024-01-15T06:17:22;3.30;98.80
8711;DHT22;4392;47.400;8.062;2024-01-15T06:19:47;3.30;98.60
8711;DHT22;4392;47.400;8.062;2024-01-15T06:22:13;3.40;98.70
8711;DHT22;4392;47.400;8.062;2024-01-15T06:24:38;3.30;98.50
8711;DHT22;4392;47.400;8.062;2024-01-15T06:27:04;3.40;97.90
8711;DHT22;4392;47.400;8.062;2024-01-15T06:29:30;3.40;97.60
8711;DHT22;4392;47.400;8.062;2024-01-15T06:31:55;3.50;97.60
8711;DHT22;4392;47.400;8.062;2024-01-15T06:34:21;3.60;97.50
8711;DHT22;4392;47.400;8.062;2024-01-15T06:36:47;5.20;99.90
8711;DHT22;4392;47.400;8.062;2024-01-15T06:39:12;5.40;95.50
8711;DHT22;4392;47.400;8.062;2024-01-15T06:41:38;4.70;94.20
8711;DHT22;4392;47.400;8.062;2024-01-15T06:44:11;4.50;94.30
8711;DHT22;4392;47.400;8.062;2024-01-15T06:46:41;4.30;94.20
8711;DHT22;4392;47.400;8.062;2024-01-15T06:49:07;4.20;94.10
8711;DHT22;4392;47.400;8.062;2024-01-15T06:51:32;4.10;92.90
8711;DHT22;4392;47.400;8.062;2024-01-15T06:53:58;4.00;93.10
8711;DHT22;4392;47.400;8.062;2024-01-15T06:56:23;3.90;92.90
8711;DHT22;4392;47.400;8.062;2024-01-15T06:58:49;3.90;92.80
8711;DHT22;4392;47.400;8.062;2024-01-15T07:01:15;3.90;92.40
8711;DHT22;4392;47.400;8.062;2024-01-15T07:03:41;3.70;92.60
8711;DHT22;4392;47.400;8.062;2024-01-15T07:06:06;3.60;93.50
8711;DHT22;4392;47.400;8.062;2024-01-15T07:08:32;3.80;93.50
8711;DHT22;4392;47.400;8.062;2024-01-15T07:10:57;3.90;93.00
8711;DHT22;4392;47.400;8.062;2024-01-15T07:13:23;3.40;94.10
8711;DHT22;4392;47.400;8.062;2024-01-15T07:15:49;3.70;94.00
8711;DHT22;4392;47.400;8.062;2024-01-15T07:18:14;3.60;93.70
8711;DHT22;4392;47.400;8.062;2024-01-15T07:20:40;3.60;94.60
8711;DHT22;4392;47.400;8.062;2024-01-15T07:23:05;3.80;94.40
8711;DHT22;4392;47.400;8.062;2024-01-15T07:25:33;3.90;94.10
8711;DHT22;4392;47.400;8.062;2024-01-15T07:27:59;3.70;93.30
8711;DHT22;4392;47.400;8.062;2024-01-15T07:30:24;3.80;94.10
8711;DHT22;4392;47.400;8.062;2024-01-15T07:32:50;3.90;93.40
8711;DHT22;4392;47.400;8.062;2024-01-15T07:35:16;4.10;93.20
8711;DHT22;4392;47.400;8.062;2024-01-15T07:37:42;4.00;93.00
8711;DHT22;4392;47.400;8.062;2024-01-15T07:40:10;4.00;93.20
8711;DHT22;4392;47.400;8.062;2024-01-15T07:42:37;4.10;92.70
8711;DHT22;4392;47.400;8.062;2024-01-15T07:45:04;3.90;92.40
8711;DHT22;4392;47.400;8.062;2024-01-15T07:47:29;3.60;91.60
8711;DHT22;4392;47.400;8.062;2024-01-15T07:49:55;3.50;92.00
8711;DHT22;4392;47.400;8.062;2024-01-15T07:52:21;3.00;92.50
8711;DHT22;4392;47.400;8.062;2024-01-15T07:54:47;3.30;92.90
8711;DHT22;4392;47.400;8.062;2024-01-15T07:57:15;3.60;91.40
8711;DHT22;4392;47.400;8.062;2024-01-15T07:59:43;4.90;99.10
8711;DHT22;4392;47.400;8.062;2024-01-15T08:02:08;6.80;99.30
8711;DHT22;4392;47.400;8.062;2024-01-15T08:04:39;7.50;94.50
8711;DHT22;4392;47.400;8.062;2024-01-15T08:07:05;8.30;91.00
8711;DHT22;4392;47.400;8.062;2024-01-15T08:09:32;7.20;80.10
8711;DHT22;4392;47.400;8.062;2024-01-15T08:11:58;5.50;81.30
8711;DHT22;4392;47.400;8.062;2024-01-15T08:14:24;5.00;85.30
8711;DHT22;4392;47.400;8.062;2024-01-15T08:16:49;5.00;85.80
8711;DHT22;4392;47.400;8.062;2024-01-15T08:19:15;4.60;85.40
8711;DHT22;4392;47.400;8.062;2024-01-15T08:21:40;6.80;93.30
8711;DHT22;4392;47.400;8.062;2024-01-15T08:24:06;8.00;92.00
8711;DHT22;4392;47.400;8.062;2024-01-15T08:26:32;6.70;76.30
8711;DHT22;4392;47.400;8.062;2024-01-15T08:28:58;5.50;80.90
8711;DHT22;4392;47.400;8.062;2024-01-15T08:31:24;4.80;82.20
8711;DHT22;4392;47.400;8.062;2024-01-15T08:33:50;4.80;84.90
8711;DHT22;4392;47.400;8.062;2024-01-15T08:36:16;5.10;90.10
8711;DHT22;4392;47.400;8.062;2024-01-15T08:38:41;5.20;89.20
8711;DHT22;4392;47.400;8.062;2024-01-15T08:41:07;5.40;87.40
8711;DHT22;4392;47.400;8.062;2024-01-15T08:43:34;5.50;85.60
8711;DHT22;4392;47.400;8.062;2024-01-15T08:45:59;5.00;82.60
8711;DHT22;4392;47.400;8.062;2024-01-15T08:48:26;4.60;83.20
8711;DHT22;4392;47.400;8.062;2024-01-15T08:50:56;4.70;83.50
8711;DHT22;4392;47.400;8.062;2024-01-15T08:53:22;4.30;83.80
8711;DHT22;4392;47.400;8.062;2024-01-15T08:55:48;4.30;83.40
8711;DHT22;4392;47.400;8.062;2024-01-15T08:58:17;3.90;81.90
8711;DHT22;4392;47.400;8.062;2024-01-15T09:00:43;3.80;83.20
8711;DHT22;4392;47.400;8.062;2024-01-15T09:03:08;3.80;84.00
8711;DHT22;4392;47.400;8.062;2024-01-15T09:05:34;3.90;83.50
8711;DHT22;4392;47.400;8.062;2024-01-15T09:08:03;3.80;83.30
8711;DHT22;4392;47.400;8.062;2024-01-15T09:10:29;4.60;94.50
8711;DHT22;4392;47.400;8.062;2024-01-15T09:12:55;6.40;90.90
8711;DHT22;4392;47.400;8.062;2024-01-15T09:15:21;5.80;76.70
8711;DHT22;4392;47.400;8.062;2024-01-15T09:17:46;5.10;77.70
8711;DHT22;4392;47.400;8.062;2024-01-15T09:20:12;4.20;80.60
8711;DHT22;4392;47.400;8.062;2024-01-15T09:22:40;4.00;81.90
8711;DHT22;4392;47.400;8.062;2024-01-15T09:25:08;3.90;82.90
8711;DHT22;4392;47.400;8.062;2024-01-15T09:27:35;6.20;92.30
8711;DHT22;4392;47.400;8.062;2024-01-15T09:30:01;6.60;79.10
8711;DHT22;4392;47.400;8.062;2024-01-15T09:32:27;5.80;75.80
8711;DHT22;4392;47.400;8.062;2024-01-15T09:34:52;4.90;79.40
8711;DHT22;4392;47.400;8.062;2024-01-15T09:37:18;4.90;80.20
8711;DHT22;4392;47.400;8.062;2024-01-15T09:39:43;4.90;80.20
8711;DHT22;4392;47.400;8.062;2024-01-15T09:42:10;4.60;81.70
8711;DHT22;4392;47.400;8.062;2024-01-15T09:44:36;4.50;81.70
8711;DHT22;4392;47.400;8.062;2024-01-15T09:47:03;6.50;94.90
8711;DHT22;4392;47.400;8.062;2024-01-15T09:49:29;6.40;77.60
8711;DHT22;4392;47.400;8.062;2024-01-15T09:51:56;5.70;79.50
8711;DHT22;4392;47.400;8.062;2024-01-15T09:54:22;5.40;79.40
8711;DHT22;4392;47.400;8.062;2024-01-15T09:56:49;5.50;89.20
8711;DHT22;4392;47.400;8.062;2024-01-15T09:59:16;7.80;90.10
8711;DHT22;4392;47.400;8.062;2024-01-15T10:01:43;7.20;75.70
8711;DHT22;4392;47.400;8.062;2024-01-15T10:04:13;6.40;75.80
8711;DHT22;4392;47.400;8.062;2024-01-15T10:06:40;5.90;76.80
8711;DHT22;4392;47.400;8.062;2024-01-15T10:09:07;5.70;77.90
8711;DHT22;4392;47.400;8.062;2024-01-15T10:11:33;5.50;78.90
8711;DHT22;4392;47.400;8.062;2024-01-15T10:13:59;5.40;78.80
8711;DHT22;4392;47.400;8.062;2024-01-15T10:16:25;5.30;79.00
8711;DHT22;4392;47.400;8.062;2024-01-15T10:18:56;5.20;79.50
8711;DHT22;4392;47.400;8.062;2024-01-15T10:21:24;4.90;80.20
8711;DHT22;4392;47.400;8.062;2024-01-15T10:23:52;4.40;81.30
8711;DHT22;4392;47.400;8.062;2024-01-15T10:26:17;4.50;81.50
8711;DHT22;4392;47.400;8.062;2024-01-15T10:28:43;4.50;81.60
8711;DHT22;4392;47.400;8.062;2024-01-15T10:31:08;4.50;81.00
8711;DHT22;4392;47.400;8.062;2024-01-15T10:33:35;5.40;99.90
8711;DHT22;4392;47.400;8.062;2024-01-15T10:36:01;7.70;99.90
8711;DHT22;4392;47.400;8.062;2024-01-15T10:38:27;8.00;90.80
8711;DHT22;4392;47.400;8.062;2024-01-15T10:40:54;6.40;81.40
8711;DHT22;4392;47.400;8.062;2024-01-15T10:43:20;6.20;78.40
8711;DHT22;4392;47.400;8.062;2024-01-15T10:45:47;5.80;77.40
8711;DHT22;4392;47.400;8.062;2024-01-15T10:48:14;5.50;77.30
8711;DHT22;4392;47.400;8.062;2024-01-15T10:50:41;5.50;76.80
8711;DHT22;4392;47.400;8.062;2024-01-15T10:53:08;5.80;79.70
8711;DHT22;4392;47.400;8.062;2024-01-15T10:55:35;7.10;97.80
8711;DHT22;4392;47.400;8.062;2024-01-15T10:58:03;8.60;96.00
8711;DHT22;4392;47.400;8.062;2024-01-15T11:00:29;9.30;92.90
8711;DHT22;4392;47.400;8.062;2024-01-15T11:02:55;9.50;90.20
8711;DHT22;4392;47.400;8.062;2024-01-15T11:05:22;9.00;69.90
8711;DHT22;4392;47.400;8.062;2024-01-15T11:07:51;7.90;66.70
8711;DHT22;4392;47.400;8.062;2024-01-15T11:10:39;7.00;69.80
8711;DHT22;4392;47.400;8.062;2024-01-15T11:16:05;7.00;72.00
8711;DHT22;4392;47.400;8.062;2024-01-15T11:18:36;7.60;90.10
8711;DHT22;4392;47.400;8.062;2024-01-15T11:26:45;7.00;70.70
8711;DHT22;4392;47.400;8.062;2024-01-15T11:37:15;6.60;72.70
8711;DHT22;4392;47.400;8.062;2024-01-15T11:39:42;8.00;90.10
8711;DHT22;4392;47.400;8.062;2024-01-15T11:42:10;9.10;86.00
8711;DHT22;4392;47.400;8.062;2024-01-15T11:44:37;8.30;65.70
8711;DHT22;4392;47.400;8.062;2024-01-15T11:47:05;7.80;77.90
8711;DHT22;4392;47.400;8.062;2024-01-15T11:49:59;9.00;82.80
8711;DHT22;4392;47.400;8.062;2024-01-15T11:52:34;9.60;78.30
8711;DHT22;4392;47.400;8.062;2024-01-15T11:55:01;9.80;73.50
8711;DHT22;4392;47.400;8.062;2024-01-15T12:00:07;7.90;61.40
8711;DHT22;4392;47.400;8.062;2024-01-15T12:02:34;7.10;60.70
8711;DHT22;4392;47.400;8.062;2024-01-15T12:05:02;6.80;63.60
8711;DHT22;4392;47.400;8.062;2024-01-15T12:07:28;7.10;80.00
8711;DHT22;4392;47.400;8.062;2024-01-15T12:09:54;8.80;82.50
8711;DHT22;4392;47.400;8.062;2024-01-15T12:12:27;9.40;78.90
8711;DHT22;4392;47.400;8.062;2024-01-15T12:14:53;9.80;76.20
8711;DHT22;4392;47.400;8.062;2024-01-15T12:17:19;9.20;63.30
8711;DHT22;4392;47.400;8.062;2024-01-15T12:19:45;9.60;71.60
8711;DHT22;4392;47.400;8.062;2024-01-15T12:22:10;9.50;65.40
8711;DHT22;4392;47.400;8.062;2024-01-15T12:24:36;9.20;64.00
8711;DHT22;4392;47.400;8.062;2024-01-15T12:27:02;9.30;64.80
8711;DHT22;4392;47.400;8.062;2024-01-15T12:29:27;9.40;65.90
8711;DHT22;4392;47.400;8.062;2024-01-15T12:31:53;9.60;60.30
8711;DHT22;4392;47.400;8.062;2024-01-15T12:34:19;9.30;62.20
8711;DHT22;4392;47.400;8.062;2024-01-15T12:36:46;9.00;58.00
8711;DHT22;4392;47.400;8.062;2024-01-15T12:39:12;8.30;58.70
8711;DHT22;4392;47.400;8.062;2024-01-15T12:41:39;7.40;60.30
8711;DHT22;4392;47.400;8.062;2024-01-15T12:44:04;6.70;64.40
8711;DHT22;4392;47.400;8.062;2024-01-15T12:46:30;6.40;66.70
8711;DHT22;4392;47.400;8.062;2024-01-15T12:48:57;6.30;68.60
8711;DHT22;4392;47.400;8.062;2024-01-15T12:51:26;7.00;72.50
8711;DHT22;4392;47.400;8.062;2024-01-15T12:53:52;7.00;68.90
8711;DHT22;4392;47.400;8.062;2024-01-15T12:56:18;6.50;70.50
8711;DHT22;4392;47.400;8.062;2024-01-15T12:58:44;6.00;74.10
8711;DHT22;4392;47.400;8.062;2024-01-15T13:01:09;6.30;74.00
8711;DHT22;4392;47.400;8.062;2024-01-15T13:03:36;6.40;73.80
8711;DHT22;4392;47.400;8.062;2024-01-15T13:06:01;6.20;74.80
8711;DHT22;4392;47.400;8.062;2024-01-15T13:08:27;6.10;76.00
8711;DHT22;4392;47.400;8.062;2024-01-15T13:10:55;6.20;76.50
8711;DHT22;4392;47.400;8.062;2024-01-15T13:13:22;6.50;76.70
8711;DHT22;4392;47.400;8.062;2024-01-15T13:15:48;8.30;79.40
8711;DHT22;4392;47.400;8.062;2024-01-15T13:18:13;8.60;75.80
8711;DHT22;4392;47.400;8.062;2024-01-15T13:20:42;8.00;71.90
8711;DHT22;4392;47.400;8.062;2024-01-15T13:23:08;6.50;75.60
8711;DHT22;4392;47.400;8.062;2024-01-15T13:25:35;5.60;80.70
8711;DHT22;4392;47.400;8.062;2024-01-15T13:28:04;5.50;81.60
8711;DHT22;4392;47.400;8.062;2024-01-15T13:30:30;5.40;84.20
8711;DHT22;4392;47.400;8.062;2024-01-15T13:32:56;5.50;83.10
8711;DHT22;4392;47.400;8.062;2024-01-15T13:35:29;5.50;83.80
8711;DHT22;4392;47.400;8.062;2024-01-15T13:37:55;5.50;83.10
8711;DHT22;4392;47.400;8.062;2024-01-15T13:40:20;5.50;84.10
8711;DHT22;4392;47.400;8.062;2024-01-15T13:42:46;5.70;83.60
8711;DHT22;4392;47.400;8.062;2024-01-15T13:45:13;5.90;83.10
8711;DHT22;4392;47.400;8.062;2024-01-15T13:47:44;5.70;82.70
8711;DHT22;4392;47.400;8.062;2024-01-15T13:50:10;5.40;87.60
8711;DHT22;4392;47.400;8.062;2024-01-15T13:52:36;6.80;80.70
8711;DHT22;4392;47.400;8.062;2024-01-15T13:55:01;5.80;81.10
8711;DHT22;4392;47.400;8.062;2024-01-15T13:57:27;5.60;81.70
8711;DHT22;4392;47.400;8.062;2024-01-15T13:59:53;5.30;83.10
8711;DHT22;4392;47.400;8.062;2024-01-15T14:02:18;5.90;88.30
8711;DHT22;4392;47.400;8.062;2024-01-15T14:04:45;8.30;86.50
8711;DHT22;4392;47.400;8.062;2024-01-15T14:07:11;8.90;75.40
8711;DHT22;4392;47.400;8.062;2024-01-15T14:09:37;7.90;72.10
8711;DHT22;4392;47.400;8.062;2024-01-15T14:12:03;9.00;81.60
8711;DHT22;4392;47.400;8.062;2024-01-15T14:14:29;8.50;71.00
8711;DHT22;4392;47.400;8.062;2024-01-15T14:16:54;7.70;69.60
8711;DHT22;4392;47.400;8.062;2024-01-15T14:19:20;6.80;70.90
8711;DHT22;4392;47.400;8.062;2024-01-15T14:21:46;6.20;73.40
8711;DHT22;4392;47.400;8.062;2024-01-15T14:24:11;6.10;73.20
8711;DHT22;4392;47.400;8.062;2024-01-15T14:26:37;5.80;72.30
8711;DHT22;4392;47.400;8.062;2024-01-15T14:29:03;5.60;74.30
8711;DHT22;4392;47.400;8.062;2024-01-15T14:31:28;5.60;77.60
8711;DHT22;4392;47.400;8.062;2024-01-15T14:33:54;5.50;80.00
8711;DHT22;4392;47.400;8.062;2024-01-15T14:36:20;5.00;84.60
8711;DHT22;4392;47.400;8.062;2024-01-15T14:38:46;4.90;87.50
8711;DHT22;4392;47.400;8.062;2024-01-15T14:41:12;4.60;89.70
8711;DHT22;4392;47.400;8.062;2024-01-15T14:43:37;4.60;90.30
8711;DHT22;4392;47.400;8.062;2024-01-15T14:46:03;4.70;90.50
8711;DHT22;4392;47.400;8.062;2024-01-15T14:48:29;4.60;90.80
8711;DHT22;4392;47.400;8.062;2024-01-15T14:50:57;4.40;91.20
8711;DHT22;4392;47.400;8.062;2024-01-15T14:53:23;4.20;91.80
8711;DHT22;4392;47.400;8.062;2024-01-15T14:55:48;4.00;92.20
8711;DHT22;4392;47.400;8.062;2024-01-15T14:58:14;3.90;92.60
8711;DHT22;4392;47.400;8.062;2024-01-15T15:00:40;3.90;92.70
8711;DHT22;4392;47.400;8.062;2024-01-15T15:03:06;4.00;92.20
8711;DHT22;4392;47.400;8.062;2024-01-15T15:05:31;4.30;91.90
8711;DHT22;4392;47.400;8.062;2024-01-15T15:07:57;4.00;91.80
8711;DHT22;4392;47.400;8.062;2024-01-15T15:10:23;3.80;92.40
8711;DHT22;4392;47.400;8.062;2024-01-15T15:12:48;3.90;92.30
8711;DHT22;4392;47.400;8.062;2024-01-15T15:15:14;3.80;92.00
8711;DHT22;4392;47.400;8.062;2024-01-15T15:17:42;3.60;92.40
8711;DHT22;4392;47.400;8.062;2024-01-15T15:20:08;3.60;92.10
8711;DHT22;4392;47.400;8.062;2024-01-15T15:22:34;3.70;92.20
8711;DHT22;4392;47.400;8.062;2024-01-15T15:24:59;3.50;92.30
8711;DHT22;4392;47.400;8.062;2024-01-15T15:27:25;3.50;92.40
8711;DHT22;4392;47.400;8.062;2024-01-15T15:29:53;3.40;92.70
8711;DHT22;4392;47.400;8.062;2024-01-15T15:32:19;3.70;92.50
8711;DHT22;4392;47.400;8.062;2024-01-15T15:34:44;3.80;92.20
8711;DHT22;4392;47.400;8.062;2024-01-15T15:37:10;3.50;92.50
8711;DHT22;4392;47.400;8.062;2024-01-15T15:39:38;3.30;92.90
8711;DHT22;4392;47.400;8.062;2024-01-15T15:42:04;3.30;93.30
8711;DHT22;4392;47.400;8.062;2024-01-15T15:44:30;3.40;93.10
8711;DHT22;4392;47.400;8.062;2024-01-15T15:46:55;3.20;93.60
8711;DHT22;4392;47.400;8.062;2024-01-15T15:49:21;3.40;93.00
8711;DHT22;4392;47.400;8.062;2024-01-15T15:51:47;3.40;92.70
8711;DHT22;4392;47.400;8.062;2024-01-15T15:54:13;3.20;92.50
8711;DHT22;4392;47.400;8.062;2024-01-15T15:56:38;3.10;91.80
8711;DHT22;4392;47.400;8.062;2024-01-15T15:59:05;3.10;91.80
8711;DHT22;4392;47.400;8.062;2024-01-15T16:01:31;3.20;90.90
8711;DHT22;4392;47.400;8.062;2024-01-15T16:03:58;3.10;91.40
8711;DHT22;4392;47.400;8.062;2024-01-15T16:06:24;3.10;91.10
8711;DHT22;4392;47.400;8.062;2024-01-15T16:08:49;3.00;91.20
8711;DHT22;4392;47.400;8.062;2024-01-15T16:11:16;3.00;90.60
8711;DHT22;4392;47.400;8.062;2024-01-15T16:13:42;2.90;90.90
8711;DHT22;4392;47.400;8.062;2024-01-15T16:16:08;2.90;90.40
8711;DHT22;4392;47.400;8.062;2024-01-15T16:18:34;3.00;90.40
8711;DHT22;4392;47.400;8.062;2024-01-15T16:20:59;2.90;90.50
8711;DHT22;4392;47.400;8.062;2024-01-15T16:23:26;2.80;90.60
8711;DHT22;4392;47.400;8.062;2024-01-15T16:25:51;2.80;91.00
8711;DHT22;4392;47.400;8.062;2024-01-15T16:28:17;2.80;90.80
8711;DHT22;4392;47.400;8.062;2024-01-15T16:30:42;2.80;91.10
8711;DHT22;4392;47.400;8.062;2024-01-15T16:33:08;2.80;91.00
8711;DHT22;4392;47.400;8.062;2024-01-15T16:35:34;2.80;90.90
8711;DHT22;4392;47.400;8.062;2024-01-15T16:38:00;2.60;91.00
8711;DHT22;4392;47.400;8.062;2024-01-15T16:40:26;2.60;91.50
8711;DHT22;4392;47.400;8.062;2024-01-15T16:42:51;2.60;91.40
8711;DHT22;4392;47.400;8.062;2024-01-15T16:45:18;2.70;91.20
8711;DHT22;4392;47.400;8.062;2024-01-15T16:47:43;2.80;91.20
8711;DHT22;4392;47.400;8.062;2024-01-15T16:50:09;2.70;91.20
8711;DHT22;4392;47.400;8.062;2024-01-15T16:52:35;2.80;91.20
8711;DHT22;4392;47.400;8.062;2024-01-15T16:55:03;2.60;91.50
8711;DHT22;4392;47.400;8.062;2024-01-15T16:57:29;2.40;92.00
8711;DHT22;4392;47.400;8.062;2024-01-15T16:59:54;2.60;91.90
8711;DHT22;4392;47.400;8.062;2024-01-15T17:02:20;2.60;91.70
8711;DHT22;4392;47.400;8.062;2024-01-15T17:04:46;2.60;92.10
8711;DHT22;4392;47.400;8.062;2024-01-15T17:07:11;2.60;92.00
8711;DHT22;4392;47.400;8.062;2024-01-15T17:09:37;2.70;92.00
8711;DHT22;4392;47.400;8.062;2024-01-15T17:12:03;2.60;92.20
8711;DHT22;4392;47.400;8.062;2024-01-15T17:14:29;2.60;92.40
8711;DHT22;4392;47.400;8.062;2024-01-15T17:16:55;2.50;92.60
8711;DHT22;4392;47.400;8.062;2024-01-15T17:19:21;2.30;93.10
8711;DHT22;4392;47.400;8.062;2024-01-15T17:21:47;2.40;93.00
8711;DHT22;4392;47.400;8.062;2024-01-15T17:24:12;2.40;93.20
8711;DHT22;4392;47.400;8.062;2024-01-15T17:26:38;2.40;93.40
8711;DHT22;4392;47.400;8.062;2024-01-15T17:29:04;2.40;93.50
8711;DHT22;4392;47.400;8.062;2024-01-15T17:31:30;2.40;93.80
8711;DHT22;4392;47.400;8.062;2024-01-15T17:33:58;2.40;93.80
8711;DHT22;4392;47.400;8.062;2024-01-15T17:36:23;2.50;93.80
8711;DHT22;4392;47.400;8.062;2024-01-15T17:38:49;2.40;94.40
8711;DHT22;4392;47.400;8.062;2024-01-15T17:41:15;2.40;94.40
8711;DHT22;4392;47.400;8.062;2024-01-15T17:43:40;2.40;94.70
8711;DHT22;4392;47.400;8.062;2024-01-15T17:46:06;2.40;94.90
8711;DHT22;4392;47.400;8.062;2024-01-15T17:48:32;2.40;95.00
8711;DHT22;4392;47.400;8.062;2024-01-15T17:50:58;2.40;95.20
8711;DHT22;4392;47.400;8.062;2024-01-15T17:53:25;2.40;95.40
8711;DHT22;4392;47.400;8.062;2024-01-15T17:55:51;2.30;96.10
8711;DHT22;4392;47.400;8.062;2024-01-15T17:58:16;2.40;96.20
8711;DHT22;4392;47.400;8.062;2024-01-15T18:00:42;2.30;96.80
8711;DHT22;4392;47.400;8.062;2024-01-15T18:03:08;2.20;97.60
8711;DHT22;4392;47.400;8.062;2024-01-15T18:05:33;2.20;98.90
8711;DHT22;4392;47.400;8.062;2024-01-15T18:07:59;2.10;99.70
8711;DHT22;4392;47.400;8.062;2024-01-15T18:10:27;2.00;99.90
8711;DHT22;4392;47.400;8.062;2024-01-15T18:12:55;2.00;99.90
8711;DHT22;4392;47.400;8.062;2024-01-15T18:15:21;2.00;99.90
8711;DHT22;4392;47.400;8.062;2024-01-15T18:17:46;2.10;99.90